Euclid Heights, Arkansas
Current Conditions -  °F | °C
As of 3:53 PM on Tuesday 21 Oct 2014 (Local Time) from KHOT Reporting Station
Clear Clear  
Wind Chill: 78°   Ceiling: Unl
Heat Index: 79°   Visibility: 10mi
Dew Point: 56°   Wind: 6mph
Humidity: 46%   Direction: 290°WNW
Pressure: 30.05"   Gusts: NA
Location:  34.5331°N, 93.0035°W
Report Text: KHOT 212053Z AUTO 29005KT 10SM CLR 26/13 A3005 RMK AO2 SLP170 T02560133 56019
Loading
Personal Weather Stations






























Interactive Weather Map
Tropical Storm Tracking
New forecast layout! Learn more

10-Day Weather Forecast

Advertisements
Track Severe Weather on mobile